This is the latest recevied weather packets stored in our database for station/object JE4YKI-13. If no packets are shown the sender has not sent any weather packets the latest 10 day(s).
| Time | Temp. | Humidity | Pressure | Rain* | Wind** | Luminosity | Snow |
|---|---|---|---|---|---|---|---|
| 1777615538 | 13.33° C | 74% | 1004.8 hPa | 0 mm | - | - | - |
| 1777613737 | 15° C | 64% | 1004.2 hPa | 0 mm | - | - | - |
| 1777613136 | 15° C | 63% | 1004.2 hPa | 0 mm | - | - | - |
| 1777612536 | 15.56° C | 62% | 1004.2 hPa | 0 mm | - | - | - |
| 1777611936 | 15° C | 64% | 1004.2 hPa | 0 mm | - | - | - |
| 1777611335 | 14.44° C | 66% | 1004.2 hPa | 0 mm | - | - | - |
| 1777610735 | 14.44° C | 69% | 1004.1 hPa | 0 mm | - | - | - |
| 1777610135 | 14.44° C | 72% | 1004.2 hPa | 0 mm | - | - | - |
| 1777609534 | 14.44° C | 72% | 1004.3 hPa | 0 mm | - | - | - |
| 1777608935 | 15.56° C | 67% | 1004.1 hPa | 0 mm | - | - | - |
| 1777608334 | 16.11° C | 63% | 1004 hPa | 0 mm | - | - | - |
| 1777607733 | 16.11° C | 62% | 1003.8 hPa | 0 mm | - | - | - |
| 1777607133 | 16.11° C | 61% | 1004 hPa | 0 mm | - | - | - |
| 1777606532 | 16.11° C | 63% | 1003.9 hPa | 0 mm | - | - | - |
| 1777605932 | 16.11° C | 64% | 1003.8 hPa | 0 mm | - | - | - |
| 1777605332 | 16.11° C | 64% | 1003.9 hPa | 0 mm | - | - | - |
| 1777604732 | 16.11° C | 64% | 1004.1 hPa | 0 mm | - | - | - |
| 1777603530 | 16.11° C | 68% | 1004.1 hPa | 0 mm | - | - | - |
| 1777602928 | 17.22° C | 62% | 1004 hPa | 0 mm | - | - | - |
| 1777602327 | 17.22° C | 62% | 1004 hPa | 0 mm | - | - | - |
| 1777601726 | 17.22° C | 61% | 1004 hPa | 0 mm | - | - | - |
| 1777601126 | 17.78° C | 61% | 1004 hPa | 0 mm | - | - | - |
| 1777600526 | 17.78° C | 60% | 1004 hPa | 0 mm | - | - | - |
| 1777599925 | 17.78° C | 59% | 1003.9 hPa | 0 mm | - | - | - |
| 1777599326 | 17.78° C | 60% | 1004.1 hPa | 0 mm | - | - | - |
* Rain latest hour (hover to see other rain measurements)
** Current wind speed in m/s (hover to see current wind gust speed)